Latest Weather Observations for Robe Airport

IDS60801

Issued at 8:31 pm CST Friday 6 May 2016 (issued every 30 minutes, with the page automatically refreshed every 10 minutes)

About weather observations | Map of weather stations | Latest weather observations for SA | Other Formats
Station Details ID: 026105 Name: ROBE AIRFIELD Lat: -37.18 Lon: 139.81 Height: 3.0 m
Data from the previous 72 hours. | See also: Recent months at Robe Airport
Date/Time
CST
Temp
°C
App
Temp
°C
Dew
Point
Rel
Hum
%
Delta-T
°C
Wind Press
QNH
hPa
Press
MSL
hPa
Rain
since 9 am
mm
Dir
 
Spd
km/h
Gust
km/h
Spd
kts
Gust
kts
06/08:30pm 9.5 9.2 8.6 94 0.4 CALM 0 0 0 0 1015.4 1015.4 0.0
06/08:00pm 10.1 9.9 9.0 93 0.5 CALM 0 0 0 0 1015.1 1015.1 0.0
06/07:30pm 10.8 10.7 9.6 92 0.6 CALM 0 0 0 0 1015.0 1015.0 0.0
06/07:00pm 12.3 12.2 10.9 91 0.7 SW 2 6 1 3 1015.1 1015.1 0.0
06/06:30pm 12.7 13.0 10.8 88 1.0 CALM 0 0 0 0 1015.0 1015.0 0.0
06/06:00pm 13.9 14.3 11.1 83 1.5 CALM 0 0 0 0 1014.9 1014.9 0.0
06/05:30pm 15.4 15.1 11.4 77 2.1 SW 4 6 2 3 1014.7 1014.7 0.0
06/05:00pm 16.5 15.9 11.6 73 2.7 SW 6 7 3 4 1014.3 1014.3 0.0
06/04:30pm 17.1 16.3 11.6 70 3.0 SW 7 13 4 7 1014.3 1014.3 0.0
06/04:00pm 17.8 17.0 11.6 67 3.4 WNW 7 9 4 5 1014.3 1014.3 0.0
06/03:30pm 18.0 16.8 11.6 66 3.5 NW 9 11 5 6 1014.1 1014.1 0.0
06/03:00pm 18.6 17.0 11.4 63 3.9 NW 11 15 6 8 1014.0 1014.0 0.0
06/02:30pm 19.1 18.4 11.4 61 4.2 NNW 6 9 3 5 1013.8 1013.8 0.0
06/02:00pm 18.1 16.8 11.4 65 3.7 NW 9 17 5 9 1014.2 1014.2 0.0
06/01:30pm 18.6 17.3 11.4 63 3.9 NW 9 15 5 8 1014.3 1014.3 0.0
06/01:00pm 18.3 16.6 11.1 63 3.9 NW 11 15 6 8 1014.4 1014.4 0.0
06/12:30pm 18.4 17.1 11.2 63 3.9 NW 9 15 5 8 1014.6 1014.6 0.0
06/12:00pm 18.5 17.2 11.1 62 4.0 NW 9 13 5 7 1014.9 1014.9 0.0
06/11:30am 18.3 17.3 11.1 63 3.9 W 7 9 4 5 1015.3 1015.3 0.0
06/11:00am 17.7 16.1 10.1 61 4.0 WSW 9 13 5 7 1015.4 1015.4 0.0
06/10:30am 18.1 17.2 10.5 61 4.1 SW 6 11 3 6 1015.3 1015.3 0.0
06/10:00am 17.6 16.7 11.2 66 3.5 SSW 7 13 4 7 1015.1 1015.1 0.0
06/09:30am 16.8 16.0 11.1 69 3.1 SSW 6 9 3 5 1015.1 1015.1 0.0
06/09:00am 16.2 16.1 12.0 76 2.3 SW 4 7 2 4 1015.2 1015.2 0.0
06/08:30am 15.5 15.7 13.2 86 1.3 SW 4 4 2 2 1015.0 1015.0 0.0
06/08:00am 14.8 14.7 13.2 90 0.9 SSW 6 7 3 4 1014.6 1014.6 0.0
06/07:30am 14.8 13.8 13.5 92 0.7 SW 11 15 6 8 1014.2 1014.2 0.0
06/07:00am 11.7 11.8 11.4 98 0.2 SW 2 2 1 1 1013.9 1013.9 0.0
06/06:30am 10.3 10.3 9.7 96 0.3 CALM 0 0 0 0 1013.3 1013.3 0.0
06/06:00am 11.1 11.2 10.2 94 0.5 CALM 0 0 0 0 1013.0 1013.0 0.0
06/05:30am 11.6 11.6 9.7 88 1.0 CALM 0 4 0 2 1012.7 1012.7 0.0
06/05:00am 14.5 14.3 12.9 90 0.9 WSW 6 9 3 5 1012.3 1012.3 0.0
06/04:30am 14.6 14.4 13.0 90 0.9 WSW 6 7 3 4 1012.1 1012.1 0.0
06/04:00am 14.9 15.0 13.8 93 0.6 WSW 6 9 3 5 1012.0 1012.0 0.0
06/03:30am 15.3 16.2 15.0 98 0.2 NW 4 6 2 3 1011.8 1011.8 0.0
06/03:00am 14.5 14.6 13.9 96 0.3 NW 6 7 3 4 1011.6 1011.6 0.0
06/02:30am 15.6 15.8 14.8 95 0.5 NW 7 9 4 5 1011.4 1011.4 0.0
06/02:00am 16.2 16.1 14.9 92 0.7 NW 9 17 5 9 1011.3 1011.3 0.0
06/01:30am 16.6 15.8 15.1 91 0.9 WNW 13 20 7 11 1011.2 1011.2 0.0
06/01:00am 16.1 15.6 15.0 93 0.6 NW 11 17 6 9 1011.2 1011.2 0.0
06/12:30am 16.4 15.5 14.8 90 0.9 NW 13 19 7 10 1011.0 1011.0 0.0
06/12:00am 16.3 15.3 14.7 90 0.9 NW 13 17 7 9 1010.8 1010.8 0.0
 
Date/Time
CST
Temp
°C
App
Temp
°C
Dew
Point
Rel
Hum
%
Delta-T
°C
Wind Press
QNH
hPa
Press
MSL
hPa
Rain
since 9 am
mm
Dir
 
Spd
km/h
Gust
km/h
Spd
kts
Gust
kts
05/11:30pm 16.2 15.4 14.0 87 1.2 NW 11 15 6 8 1010.9 1010.9 0.0
05/11:00pm 16.6 15.4 13.9 84 1.5 NW 13 19 7 10 1010.9 1010.9 0.0
05/10:30pm 17.7 14.9 13.2 75 2.5 NW 20 26 11 14 1010.9 1010.9 0.0
05/10:00pm 17.9 14.5 12.6 71 2.9 NNW 22 30 12 16 1010.8 1010.8 0.0
05/09:30pm 18.0 14.2 12.5 70 3.1 N 24 32 13 17 1010.3 1010.3 0.0
05/09:00pm 17.9 14.2 12.8 72 2.9 N 24 32 13 17 1010.2 1010.2 0.0
05/08:30pm 18.3 14.6 12.7 70 3.1 NNW 24 33 13 18 1010.3 1010.3 0.0
05/08:00pm 18.2 14.1 12.6 70 3.1 N 26 35 14 19 1010.1 1010.1 0.0
05/07:30pm 18.3 14.3 13.0 71 3.0 N 26 33 14 18 1010.3 1010.3 0.0
05/07:00pm 18.2 14.3 13.3 73 2.8 N 26 35 14 19 1010.1 1010.1 0.0
05/06:30pm 18.0 14.0 13.1 73 2.8 N 26 35 14 19 1010.0 1010.0 0.0
05/06:00pm 17.9 14.0 13.2 74 2.6 N 26 35 14 19 1009.7 1009.7 0.0
05/05:30pm 18.0 14.2 13.5 75 2.6 NNW 26 35 14 19 1009.6 1009.6 0.0
05/05:00pm 18.6 13.9 13.2 71 3.0 NNW 30 39 16 21 1009.5 1009.5 0.0
05/04:30pm 19.2 14.6 13.4 69 3.3 NNW 30 41 16 22 1009.5 1009.5 0.0
05/04:00pm 19.4 14.4 13.3 68 3.5 NNW 32 43 17 23 1009.6 1009.6 0.0
05/03:30pm 19.6 14.4 13.3 67 3.6 NNW 33 44 18 24 1009.7 1009.7 0.0
05/03:00pm 20.0 14.4 13.2 65 3.9 NNW 35 50 19 27 1009.7 1009.7 0.0
05/02:30pm 20.1 14.4 13.1 64 4.0 NNW 35 54 19 29 1009.8 1009.8 0.0
05/02:00pm 20.0 14.0 13.2 65 3.9 NNW 37 54 20 29 1010.0 1010.0 0.0
05/01:30pm 19.9 13.4 12.9 64 4.0 NNW 39 52 21 28 1010.2 1010.2 0.0
05/01:00pm 19.9 13.8 12.9 64 4.0 NNW 37 52 20 28 1010.5 1010.5 0.0
05/12:30pm 19.8 13.3 12.8 64 4.0 NNW 39 54 21 29 1011.0 1011.0 0.0
05/12:00pm 19.9 13.0 12.9 64 4.0 NNW 41 56 22 30 1011.4 1011.4 0.0
05/11:30am 19.8 13.3 12.8 64 4.0 NNW 39 54 21 29 1011.6 1011.6 0.0
05/11:00am 19.6 13.5 13.1 66 3.7 NNW 37 52 20 28 1011.9 1011.9 0.0
05/10:30am 19.0 12.7 13.6 71 3.1 N 39 54 21 29 1012.4 1012.4 0.0
05/10:00am 18.0 12.1 13.7 76 2.4 N 37 50 20 27 1012.7 1012.7 0.0
05/09:30am 17.7 11.7 13.4 76 2.4 NNW 37 50 20 27 1012.8 1012.8 0.0
05/09:00am 17.4 12.2 13.3 77 2.3 N 33 44 18 24 1012.8 1012.8 0.2
05/08:30am 16.9 12.1 13.0 78 2.2 N 30 43 16 23 1012.7 1012.7 0.2
05/08:00am 16.0 11.1 12.7 81 1.8 N 30 41 16 22 1012.6 1012.6 0.2
05/07:30am 15.2 11.1 12.7 85 1.4 N 26 35 14 19 1012.4 1012.4 0.2
05/07:00am 15.4 12.0 13.6 89 1.0 N 24 32 13 17 1012.3 1012.3 0.2
05/06:30am 15.2 12.2 13.6 90 0.9 N 22 30 12 16 1012.1 1012.1 0.2
05/06:00am 15.1 12.2 14.0 93 0.6 N 22 30 12 16 1012.0 1012.0 0.2
05/05:30am 15.6 12.8 14.3 92 0.7 N 22 30 12 16 1011.9 1011.9 0.2
05/05:00am 15.4 12.6 14.3 93 0.6 N 22 30 12 16 1011.9 1011.9 0.2
05/04:30am 14.9 12.4 13.6 92 0.7 N 19 26 10 14 1012.0 1012.0 0.2
05/04:00am 15.0 11.7 13.9 93 0.6 N 24 32 13 17 1011.8 1011.8 0.2
05/03:30am 15.1 11.7 13.6 91 0.8 NNW 24 35 13 19 1012.0 1012.0 0.2
05/03:00am 15.0 11.2 13.5 91 0.8 N 26 35 14 19 1012.2 1012.2 0.2
05/02:30am 15.2 11.4 13.6 90 0.9 N 26 35 14 19 1012.5 1012.5 0.2
05/02:00am 15.5 12.2 13.9 90 0.9 NNW 24 32 13 17 1012.6 1012.6 0.2
05/01:30am 15.4 12.1 14.1 92 0.7 NNW 24 35 13 19 1012.7 1012.7 0.2
05/01:00am 15.4 12.2 14.3 93 0.6 NNW 24 33 13 18 1012.8 1012.8 0.2
05/12:30am 15.2 12.4 14.4 95 0.5 NNW 22 30 12 16 1013.0 1013.0 0.2
05/12:00am 15.3 12.2 14.5 95 0.5 NNW 24 33 13 18 1013.2 1013.2 0.2
 
Date/Time
CST
Temp
°C
App
Temp
°C
Dew
Point
Rel
Hum
%
Delta-T
°C
Wind Press
QNH
hPa
Press
MSL
hPa
Rain
since 9 am
mm
Dir
 
Spd
km/h
Gust
km/h
Spd
kts
Gust
kts
04/11:30pm 15.4 12.2 14.3 93 0.6 NNW 24 33 13 18 1013.3 1013.3 0.0
04/11:00pm 15.4 12.1 14.1 92 0.7 NNW 24 32 13 17 1013.5 1013.5 0.0
04/10:30pm 15.8 12.8 13.6 87 1.2 NNW 22 32 12 17 1013.6 1013.6 0.0
04/10:00pm 15.6 12.2 13.8 89 1.0 NNW 24 33 13 18 1013.8 1013.8 0.0
04/09:30pm 15.8 12.3 13.5 86 1.3 N 24 33 13 18 1013.8 1013.8 0.0
04/09:00pm 15.8 12.2 13.1 84 1.5 NNW 24 32 13 17 1013.8 1013.8 0.0
04/08:30pm 15.8 12.7 13.3 85 1.4 NNW 22 30 12 16 1013.7 1013.7 0.0
04/08:00pm 15.6 12.4 13.1 85 1.4 N 22 30 12 16 1013.7 1013.7 0.0
04/07:30pm 15.1 11.9 13.0 87 1.2 N 22 30 12 16 1013.7 1013.7 0.0
04/07:00pm 14.6 11.7 12.8 89 1.0 N 20 32 11 17 1013.6 1013.6 0.0
04/06:30pm 14.7 11.0 12.6 87 1.1 NNW 24 32 13 17 1013.6 1013.6 0.0
04/06:00pm 14.4 9.9 12.6 89 1.0 N 28 35 15 19 1013.4 1013.4 0.0
04/05:30pm 15.2 10.4 11.6 79 1.9 NNW 28 43 15 23 1013.2 1013.2 0.0
04/05:00pm 15.6 10.6 12.2 80 1.9 NNW 30 39 16 21 1013.1 1013.1 0.0
04/04:30pm 16.2 11.3 11.4 73 2.6 NNW 28 39 15 21 1013.0 1013.0 0.0
04/04:00pm 16.3 10.8 10.6 69 3.0 NW 30 44 16 24 1012.9 1012.9 0.0
04/03:30pm 16.2 11.6 10.9 71 2.8 NW 26 35 14 19 1012.8 1012.8 0.0
04/03:00pm 16.7 12.1 11.2 70 3.0 NNW 26 33 14 18 1012.8 1012.8 0.0
04/02:30pm 16.7 11.9 11.8 73 2.7 NNW 28 37 15 20 1012.9 1012.9 0.0
04/02:00pm 16.9 12.3 11.2 69 3.1 NNW 26 35 14 19 1013.2 1013.2 0.0
04/01:30pm 16.3 11.5 11.7 74 2.5 NNW 28 37 15 20 1013.4 1013.4 0.0
04/01:00pm 17.6 12.9 10.5 63 3.8 NW 26 35 14 19 1013.5 1013.5 0.0
04/12:30pm 17.0 12.3 10.8 67 3.3 NW 26 35 14 19 1013.9 1013.9 0.0
04/12:00pm 16.9 12.5 10.3 65 3.5 NW 24 32 13 17 1014.2 1014.2 0.0
04/11:30am 16.6 12.0 9.8 64 3.6 NW 24 32 13 17 1014.6 1014.6 0.0
04/11:00am 14.5 10.9 9.7 73 2.5 NW 19 35 10 19 1014.9 1014.9 0.0
04/10:30am 15.2 11.9 9.6 69 2.9 NNW 17 22 9 12 1014.9 1014.9 0.0
04/10:00am 15.2 11.6 10.0 71 2.7 NNW 19 24 10 13 1014.7 1014.7 0.0
04/09:30am 15.2 12.1 10.2 72 2.6 NNW 17 24 9 13 1014.6 1014.6 0.0
04/09:00am 14.0 12.1 10.6 80 1.8 NNW 11 15 6 8 1014.5 1014.5 1.6
04/08:30am 12.9 9.5 10.4 85 1.3 NW 19 26 10 14 1014.6 1014.6 1.6
04/08:00am 13.1 11.3 9.5 79 1.8 WNW 9 13 5 7 1014.3 1014.3 1.6
04/07:30am 12.4 9.4 9.4 82 1.5 NW 15 20 8 11 1013.9 1013.9 1.6
04/07:00am 11.9 10.1 8.0 77 1.9 W 7 9 4 5 1013.5 1013.5 1.6
04/06:30am 11.0 9.0 7.3 78 1.8 WNW 7 11 4 6 1012.9 1012.9 1.6
04/06:00am 10.9 9.0 7.6 80 1.6 WNW 7 9 4 5 1012.7 1012.7 1.6
04/05:30am 11.1 9.3 7.8 80 1.6 W 7 11 4 6 1012.5 1012.5 1.6
04/05:00am 11.4 9.7 8.3 81 1.5 WSW 7 15 4 8 1012.3 1012.3 1.6
04/04:30am 12.2 8.9 9.6 84 1.3 WSW 17 33 9 18 1012.2 1012.2 1.6
04/04:00am 11.9 9.3 7.8 76 2.0 WNW 11 17 6 9 1011.8 1011.8 1.6
04/03:30am 11.7 9.8 8.9 83 1.4 WSW 9 15 5 8 1011.7 1011.7 1.6
04/03:00am 11.8 9.2 7.9 77 1.9 W 11 19 6 10 1011.6 1011.6 1.4
04/02:30am 12.6 10.0 7.9 73 2.3 W 11 20 6 11 1011.6 1011.6 1.4
04/02:00am 12.7 9.4 8.0 73 2.3 WSW 15 24 8 13 1011.4 1011.4 1.4
04/01:30am 13.2 10.4 6.8 65 3.1 W 11 22 6 12 1011.1 1011.1 1.4
04/01:00am 12.9 10.1 7.1 68 2.8 W 11 22 6 12 1010.9 1010.9 1.4
04/12:30am 13.0 9.5 7.2 68 2.8 WSW 15 26 8 14 1010.8 1010.8 1.4
04/12:00am 13.0 9.3 6.4 64 3.1 WSW 15 24 8 13 1010.8 1010.8 1.4
 
Date/Time
CST
Temp
°C
App
Temp
°C
Dew
Point
Rel
Hum
%
Delta-T
°C
Wind Press
QNH
hPa
Press
MSL
hPa
Rain
since 9 am
mm
Dir
 
Spd
km/h
Gust
km/h
Spd
kts
Gust
kts
03/11:30pm 13.2 9.5 6.1 62 3.4 W 15 28 8 15 1010.7 1010.7 1.4
03/11:00pm 13.4 9.2 5.6 59 3.7 WSW 17 30 9 16 1010.7 1010.7 1.4
03/10:30pm 13.5 9.4 6.1 61 3.5 WSW 17 28 9 15 1010.8 1010.8 1.4
03/10:00pm 13.8 10.1 6.4 61 3.5 WSW 15 26 8 14 1010.7 1010.7 1.4
03/09:30pm 14.1 9.6 6.0 58 3.9 WSW 19 30 10 16 1010.2 1010.2 1.4
03/09:00pm 13.6 8.9 6.0 60 3.6 W 20 32 11 17 1009.9 1009.9 1.4

Other Formats:

Comma delimited format used in spreadsheet applications
http://www.bom.gov.au/fwo/IDS60801/IDS60801.95816.axf

JavaScript Object Notation format (JSON) in row-major order
http://www.bom.gov.au/fwo/IDS60801/IDS60801.95816.json